Aitana Del Mar — EBWK — position and weather

sailwx.info

Track history (hours):
 
Tides and Currents Weather Stations Pressure Air Temp Water Temp Dewpoint Dewpoint Depression Visibility Wind Speed Wind Dir Waves Ship Positions

Aitana Del Mar

Last reported at 2017-Oct-19 16:30 UTC. Time now 2017-Oct-19 16:54 UTC.
Position N 43°48' W 001°38'.

Length 31 m; draft 3.6 m.

Type: Fishing. MMSI: 224064850.

Date/timePositionNaut miles runAvg speedWind from/ knotsBaromVisibWave heightAir tempDewpointWater temp
2017-Oct-19 16:30N 43°48' W 001°38'5 9.7
2017-Oct-19 16:01N 43°44' W 001°41'510.2
2017-Oct-19 15:30N 43°39' W 001°44'510.6
2017-Oct-19 15:00N 43°35' W 001°47'510.3
2017-Oct-19 14:30N 43°30' W 001°50'510.2
2017-Oct-19 14:00N 43°25' W 001°52'510.2
2017-Oct-19 13:30N 43°21' W 001°55'1 2.3
2017-Oct-19 13:00N 43°19' W 001°55'0 0.0
2017-Oct-19 11:47N 43°19' W 001°55'0 0.0
2017-Oct-19 11:29N 43°19' W 001°55'0 0.0
2017-Oct-19 10:56N 43°19' W 001°55'0 0.0
2017-Oct-19 09:16N 43°19' W 001°55'0 0.0
2017-Oct-19 08:48N 43°19' W 001°55'0 0.2
2017-Oct-19 08:30N 43°19' W 001°56'0 0.1
2017-Oct-19 07:37N 43°19' W 001°55'1 8.1
2017-Oct-19 07:30N 43°20' W 001°56'3 6.1
2017-Oct-19 07:01N 43°20' W 002°00'510.0
2017-Oct-19 06:30N 43°20' W 002°07'2 3.9
2017-Oct-19 06:00N 43°20' W 002°09'0 0.1
2017-Oct-19 05:31N 43°20' W 002°09'0 0.6
2017-Oct-19 05:00N 43°20' W 002°10'2 4.0
2017-Oct-19 04:30N 43°21' W 002°12'3 6.2
2017-Oct-19 04:00N 43°20' W 002°08'3 6.2
2017-Oct-19 03:30N 43°21' W 002°04'4 7.2
2017-Oct-19 03:00N 43°22' W 001°59'2 4.4
2017-Oct-19 02:30N 43°22' W 001°56'0 0.7
2017-Oct-19 02:01N 43°22' W 001°56'0 0.8
2017-Oct-19 01:30N 43°22' W 001°57'0 0.8
2017-Oct-19 01:00N 43°22' W 001°57'1 1.2
2017-Oct-19 00:30N 43°22' W 001°58'4 8.5
2017-Oct-19 00:01N 43°23' W 002°04'5 9.9
2017-Oct-18 23:31N 43°23' W 002°10'5 9.8
2017-Oct-18 23:00N 43°24' W 002°17'5 9.7
2017-Oct-18 22:31N 43°24' W 002°24'5 9.9
2017-Oct-18 22:00N 43°25' W 002°30'5 9.8
2017-Oct-18 21:30N 43°26' W 002°37'5 9.9
2017-Oct-18 21:01N 43°28' W 002°43'5 9.9
2017-Oct-18 20:30N 43°27' W 002°50'510.3
2017-Oct-18 20:01N 43°27' W 002°57'510.3
2017-Oct-18 19:30N 43°25' W 003°04'5 9.8
2017-Oct-18 19:01N 43°24' W 003°11'2 3.9
2017-Oct-18 18:30N 43°26' W 003°10'510.0
2017-Oct-18 18:00N 43°27' W 003°17'5 9.1
2017-Oct-18 17:30N 43°28' W 003°23'3 0.3
2017-Oct-18 07:39N 43°25' W 003°25'110.0
2017-Oct-18 07:31N 43°26' W 003°24'5 9.2
2017-Oct-18 07:01N 43°30' W 003°20'0 0.2
2017-Oct-18 06:31N 43°30' W 003°20'0 0.8
2017-Oct-18 06:01N 43°29' W 003°21'0 0.4
2017-Oct-18 05:30N 43°29' W 003°21'0 0.2
2017-Oct-18 05:01N 43°29' W 003°21'0 0.4
2017-Oct-18 04:30N 43°29' W 003°21'3 5.4
2017-Oct-18 04:00N 43°31' W 003°24'4 8.4
2017-Oct-18 03:31N 43°34' W 003°27'0 0.3
2017-Oct-18 03:00N 43°34' W 003°28'0 0.2
2017-Oct-18 02:31N 43°34' W 003°28'0 0.1
2017-Oct-18 02:01N 43°34' W 003°28'0 0.1
2017-Oct-18 01:31N 43°34' W 003°28'4 7.8
2017-Oct-18 01:00N 43°32' W 003°23'5 9.7
2017-Oct-18 00:30N 43°29' W 003°17'510.1
2017-Oct-18 00:01N 43°27' W 003°12'5 9.5
2017-Oct-17 23:31N 43°25' W 003°05'4 8.8
2017-Oct-17 23:01N 43°26' W 002°60'4 8.5
2017-Oct-17 22:30N 43°27' W 002°54'4 8.4
2017-Oct-17 22:01N 43°28' W 002°48'4 8.2
2017-Oct-17 21:30N 43°27' W 002°43'4 8.6
2017-Oct-17 21:01N 43°25' W 002°37'4 8.4
2017-Oct-17 20:31N 43°24' W 002°32'4 8.4
2017-Oct-17 20:00N 43°22' W 002°27'4 8.3
2017-Oct-17 19:31N 43°20' W 002°22'4 7.6
2017-Oct-17 19:01N 43°19' W 002°17'4 8.4
2017-Oct-17 18:31N 43°19' W 002°11'4 8.5
2017-Oct-17 18:00N 43°19' W 002°05'4 7.4
2017-Oct-17 17:31N 43°20' W 002°00'3 5.3
2017-Oct-17 17:00N 43°21' W 001°57'0 0.4
2017-Oct-17 16:31N 43°21' W 001°57'0 0.4
2017-Oct-17 16:01N 43°21' W 001°56'2 3.1
2017-Oct-17 15:27N 43°20' W 001°55'35 6.5
2017-Oct-17 09:58N 43°29' W 002°42'510.7
2017-Oct-17 09:30N 43°29' W 002°49'510.6
2017-Oct-17 09:00N 43°29' W 002°57'510.3
2017-Oct-17 08:31N 43°29' W 003°04'510.2
2017-Oct-17 08:00N 43°30' W 003°11'510.4
2017-Oct-17 07:31N 43°30' W 003°18'3 5.4
2017-Oct-17 07:00N 43°30' W 003°22'0 0.4
2017-Oct-17 06:30N 43°30' W 003°22'0 0.6
2017-Oct-17 06:00N 43°30' W 003°22'0 0.7
2017-Oct-17 05:31N 43°29' W 003°22'0 0.0
2017-Oct-17 05:01N 43°29' W 003°22'0 0.3
2017-Oct-17 04:31N 43°29' W 003°22'3 5.0
2017-Oct-17 04:01N 43°31' W 003°25'3 6.8
2017-Oct-17 03:31N 43°31' W 003°30'2 4.1
2017-Oct-17 03:01N 43°32' W 003°33'0 0.0
2017-Oct-17 02:30N 43°32' W 003°33'0 0.0
2017-Oct-17 02:00N 43°32' W 003°33'0 0.0
2017-Oct-17 01:30N 43°32' W 003°33'0 0.0
2017-Oct-17 01:01N 43°32' W 003°33'0 0.0
2017-Oct-17 00:30N 43°32' W 003°33'0 0.0
2017-Oct-17 00:00N 43°32' W 003°33'0 0.0
2017-Oct-16 23:30N 43°32' W 003°33'0 0.0
2017-Oct-16 23:01N 43°32' W 003°33'0 0.0
2017-Oct-16 22:30N 43°32' W 003°33'0 0.0
2017-Oct-16 22:01N 43°32' W 003°33'0 0.0
2017-Oct-16 21:30N 43°32' W 003°33'0 0.0
2017-Oct-16 21:01N 43°32' W 003°33'0 0.0
2017-Oct-16 20:31N 43°32' W 003°33'0 0.0
2017-Oct-16 20:00N 43°32' W 003°33'0 0.0
2017-Oct-16 19:30N 43°32' W 003°33'0 0.1
2017-Oct-16 19:01N 43°32' W 003°33'0 0.0
2017-Oct-16 18:30N 43°32' W 003°33'0 0.0
2017-Oct-16 18:00N 43°32' W 003°33'0 0.2
2017-Oct-16 17:30N 43°32' W 003°32'2 4.7
2017-Oct-16 17:00N 43°31' W 003°29'4 8.9
2017-Oct-16 16:31N 43°28' W 003°25'3 0.5
2017-Oct-16 10:16N 43°25' W 003°25'0 0.0
2017-Oct-16 07:40N 43°25' W 003°25'0 0.0
2017-Oct-16 07:29N 43°25' W 003°25'0 0.0
2017-Oct-16 06:57N 43°25' W 003°25'0 0.0
2017-Oct-16 06:30N 43°25' W 003°25'  
2017-Oct-13 13:07N 43°25' W 003°25'0 0.0
2017-Oct-13 12:58N 43°25' W 003°25'0 0.0
2017-Oct-13 08:33N 43°25' W 003°25'  
2017-Oct-11 00:00N 43°25' W 003°25'0 0.0
2017-Oct-10 23:30N 43°25' W 003°25'2 4.0
2017-Oct-10 23:01N 43°27' W 003°23'4 8.9
2017-Oct-10 22:30N 43°29' W 003°18'4 9.0
2017-Oct-10 22:00N 43°30' W 003°12'4 8.1
2017-Oct-10 21:30N 43°32' W 003°07'5 9.6
2017-Oct-10 21:00N 43°34' W 003°01'5 9.6
2017-Oct-10 20:30N 43°36' W 002°55'5 9.4
2017-Oct-10 20:00N 43°38' W 002°49'5 9.5
2017-Oct-10 19:30N 43°40' W 002°43'5 9.6
2017-Oct-10 19:00N 43°42' W 002°37'5 9.6
2017-Oct-10 18:30N 43°44' W 002°31'5 9.7
2017-Oct-10 18:00N 43°45' W 002°25'2 5.0
2017-Oct-10 17:30N 43°45' W 002°28'5 9.5
2017-Oct-10 17:01N 43°49' W 002°32'5 9.3
2017-Oct-10 16:30N 43°51' W 002°38'3 6.9
2017-Oct-10 16:00N 43°53' W 002°42'4 7.6
2017-Oct-10 15:30N 43°53' W 002°37'3 5.8
2017-Oct-10 15:00N 43°54' W 002°33'5 5.3
2017-Oct-10 14:00N 43°56' W 002°26'3 5.7
2017-Oct-10 13:30N 43°53' W 002°27'4 8.5
2017-Oct-10 13:00N 43°53' W 002°21'4 7.5
2017-Oct-10 12:30N 43°55' W 002°17'4 8.9
2017-Oct-10 12:00N 43°55' W 002°11'0 0.1
2017-Oct-10 11:30N 43°55' W 002°11'1 2.6
2017-Oct-10 11:00N 43°54' W 002°12'2 4.9
2017-Oct-10 10:30N 43°54' W 002°15'4 7.2
2017-Oct-10 10:00N 43°52' W 002°12'4 7.4
2017-Oct-10 09:31N 43°48' W 002°15'4 8.3
2017-Oct-10 09:00N 43°45' W 002°17'5 9.7
2017-Oct-10 08:30N 43°45' W 002°23'5 9.6
2017-Oct-10 08:00N 43°46' W 002°30'4 8.0
2017-Oct-10 07:30N 43°43' W 002°34'3 6.6
2017-Oct-10 07:00N 43°43' W 002°39'4 8.4
2017-Oct-10 06:30N 43°45' W 002°44'4 8.5
2017-Oct-10 06:00N 43°44' W 002°50'4 8.6
2017-Oct-10 05:30N 43°42' W 002°55'4 8.6
2017-Oct-10 05:00N 43°40' W 003°00'4 8.6
2017-Oct-10 04:30N 43°38' W 003°06'4 8.4
2017-Oct-10 04:00N 43°36' W 003°11'4 7.3
2017-Oct-10 03:30N 43°35' W 003°16'0 0.1
2017-Oct-10 03:00N 43°35' W 003°15'0 0.4
2017-Oct-10 02:31N 43°34' W 003°15'1 1.4
2017-Oct-10 02:00N 43°35' W 003°16'0 0.8
2017-Oct-10 01:30N 43°34' W 003°17'4 8.1
2017-Oct-10 01:00N 43°32' W 003°22'5 9.0
2017-Oct-10 00:30N 43°28' W 003°24'3 6.1
2017-Oct-10 00:01N 43°25' W 003°25'0 0.0
2017-Oct-09 23:30N 43°25' W 003°25'0 0.2
2017-Oct-09 23:00N 43°25' W 003°25'4 8.4
2017-Oct-09 22:30N 43°28' W 003°21'510.8
2017-Oct-09 22:00N 43°31' W 003°14'510.7
2017-Oct-09 21:30N 43°34' W 003°08'510.6
2017-Oct-09 21:00N 43°37' W 003°02'510.4
2017-Oct-09 20:30N 43°40' W 002°56'510.1
2017-Oct-09 20:00N 43°43' W 002°51'510.7
2017-Oct-09 19:30N 43°46' W 002°45'510.5
2017-Oct-09 19:00N 43°49' W 002°39'510.3
2017-Oct-09 18:30N 43°51' W 002°33'4 7.3
2017-Oct-09 18:00N 43°53' W 002°28'2 4.3
2017-Oct-09 17:30N 43°54' W 002°25'1 1.9
2017-Oct-09 17:00N 43°54' W 002°24'1 1.6
2017-Oct-09 16:31N 43°54' W 002°23'  
Track history (hours):
 
Tides and Currents Weather Stations Pressure Air Temp Water Temp Dewpoint Dewpoint Depression Visibility Wind Speed Wind Dir Waves Ship Positions

Aitana Del Mar

Last reported at 2017-Oct-19 16:30 UTC. Time now 2017-Oct-19 16:54 UTC.
Position N 43°48' W 001°38'.

Length 31 m; draft 3.6 m.

Type: Fishing. MMSI: 224064850.

Date/timePositionNaut miles runAvg speedWind from/ knotsBaromVisibWave heightAir tempDewpointWater temp
2017-Oct-19 16:30N 43°48' W 001°38'5 9.7
2017-Oct-19 16:01N 43°44' W 001°41'510.2
2017-Oct-19 15:30N 43°39' W 001°44'510.6
2017-Oct-19 15:00N 43°35' W 001°47'510.3
2017-Oct-19 14:30N 43°30' W 001°50'510.2
2017-Oct-19 14:00N 43°25' W 001°52'510.2
2017-Oct-19 13:30N 43°21' W 001°55'1 2.3
2017-Oct-19 13:00N 43°19' W 001°55'0 0.0
2017-Oct-19 11:47N 43°19' W 001°55'0 0.0
2017-Oct-19 11:29N 43°19' W 001°55'0 0.0
2017-Oct-19 10:56N 43°19' W 001°55'0 0.0
2017-Oct-19 09:16N 43°19' W 001°55'0 0.0
2017-Oct-19 08:48N 43°19' W 001°55'0 0.2
2017-Oct-19 08:30N 43°19' W 001°56'0 0.1
2017-Oct-19 07:37N 43°19' W 001°55'1 8.1
2017-Oct-19 07:30N 43°20' W 001°56'3 6.1
2017-Oct-19 07:01N 43°20' W 002°00'510.0
2017-Oct-19 06:30N 43°20' W 002°07'2 3.9
2017-Oct-19 06:00N 43°20' W 002°09'0 0.1
2017-Oct-19 05:31N 43°20' W 002°09'0 0.6
2017-Oct-19 05:00N 43°20' W 002°10'2 4.0
2017-Oct-19 04:30N 43°21' W 002°12'3 6.2
2017-Oct-19 04:00N 43°20' W 002°08'3 6.2
2017-Oct-19 03:30N 43°21' W 002°04'4 7.2
2017-Oct-19 03:00N 43°22' W 001°59'2 4.4
2017-Oct-19 02:30N 43°22' W 001°56'0 0.7
2017-Oct-19 02:01N 43°22' W 001°56'0 0.8
2017-Oct-19 01:30N 43°22' W 001°57'0 0.8
2017-Oct-19 01:00N 43°22' W 001°57'1 1.2
2017-Oct-19 00:30N 43°22' W 001°58'4 8.5
2017-Oct-19 00:01N 43°23' W 002°04'5 9.9
2017-Oct-18 23:31N 43°23' W 002°10'5 9.8
2017-Oct-18 23:00N 43°24' W 002°17'5 9.7
2017-Oct-18 22:31N 43°24' W 002°24'5 9.9
2017-Oct-18 22:00N 43°25' W 002°30'5 9.8
2017-Oct-18 21:30N 43°26' W 002°37'5 9.9
2017-Oct-18 21:01N 43°28' W 002°43'5 9.9
2017-Oct-18 20:30N 43°27' W 002°50'510.3
2017-Oct-18 20:01N 43°27' W 002°57'510.3
2017-Oct-18 19:30N 43°25' W 003°04'5 9.8
2017-Oct-18 19:01N 43°24' W 003°11'2 3.9
2017-Oct-18 18:30N 43°26' W 003°10'510.0
2017-Oct-18 18:00N 43°27' W 003°17'5 9.1
2017-Oct-18 17:30N 43°28' W 003°23'3 0.3
2017-Oct-18 07:39N 43°25' W 003°25'110.0
2017-Oct-18 07:31N 43°26' W 003°24'5 9.2
2017-Oct-18 07:01N 43°30' W 003°20'0 0.2
2017-Oct-18 06:31N 43°30' W 003°20'0 0.8
2017-Oct-18 06:01N 43°29' W 003°21'0 0.4
2017-Oct-18 05:30N 43°29' W 003°21'0 0.2
2017-Oct-18 05:01N 43°29' W 003°21'0 0.4
2017-Oct-18 04:30N 43°29' W 003°21'3 5.4
2017-Oct-18 04:00N 43°31' W 003°24'4 8.4
2017-Oct-18 03:31N 43°34' W 003°27'0 0.3
2017-Oct-18 03:00N 43°34' W 003°28'0 0.2
2017-Oct-18 02:31N 43°34' W 003°28'0 0.1
2017-Oct-18 02:01N 43°34' W 003°28'0 0.1
2017-Oct-18 01:31N 43°34' W 003°28'4 7.8
2017-Oct-18 01:00N 43°32' W 003°23'5 9.7
2017-Oct-18 00:30N 43°29' W 003°17'510.1
2017-Oct-18 00:01N 43°27' W 003°12'5 9.5
2017-Oct-17 23:31N 43°25' W 003°05'4 8.8
2017-Oct-17 23:01N 43°26' W 002°60'4 8.5
2017-Oct-17 22:30N 43°27' W 002°54'4 8.4
2017-Oct-17 22:01N 43°28' W 002°48'4 8.2
2017-Oct-17 21:30N 43°27' W 002°43'4 8.6
2017-Oct-17 21:01N 43°25' W 002°37'4 8.4
2017-Oct-17 20:31N 43°24' W 002°32'4 8.4
2017-Oct-17 20:00N 43°22' W 002°27'4 8.3
2017-Oct-17 19:31N 43°20' W 002°22'4 7.6
2017-Oct-17 19:01N 43°19' W 002°17'4 8.4
2017-Oct-17 18:31N 43°19' W 002°11'4 8.5
2017-Oct-17 18:00N 43°19' W 002°05'4 7.4
2017-Oct-17 17:31N 43°20' W 002°00'3 5.3
2017-Oct-17 17:00N 43°21' W 001°57'0 0.4
2017-Oct-17 16:31N 43°21' W 001°57'0 0.4
2017-Oct-17 16:01N 43°21' W 001°56'2 3.1
2017-Oct-17 15:27N 43°20' W 001°55'35 6.5
2017-Oct-17 09:58N 43°29' W 002°42'510.7
2017-Oct-17 09:30N 43°29' W 002°49'510.6
2017-Oct-17 09:00N 43°29' W 002°57'510.3
2017-Oct-17 08:31N 43°29' W 003°04'510.2
2017-Oct-17 08:00N 43°30' W 003°11'510.4
2017-Oct-17 07:31N 43°30' W 003°18'3 5.4
2017-Oct-17 07:00N 43°30' W 003°22'0 0.4
2017-Oct-17 06:30N 43°30' W 003°22'0 0.6
2017-Oct-17 06:00N 43°30' W 003°22'0 0.7
2017-Oct-17 05:31N 43°29' W 003°22'0 0.0
2017-Oct-17 05:01N 43°29' W 003°22'0 0.3
2017-Oct-17 04:31N 43°29' W 003°22'3 5.0
2017-Oct-17 04:01N 43°31' W 003°25'3 6.8
2017-Oct-17 03:31N 43°31' W 003°30'2 4.1
2017-Oct-17 03:01N 43°32' W 003°33'0 0.0
2017-Oct-17 02:30N 43°32' W 003°33'0 0.0
2017-Oct-17 02:00N 43°32' W 003°33'0 0.0
2017-Oct-17 01:30N 43°32' W 003°33'0 0.0
2017-Oct-17 01:01N 43°32' W 003°33'0 0.0
2017-Oct-17 00:30N 43°32' W 003°33'0 0.0
2017-Oct-17 00:00N 43°32' W 003°33'0 0.0
2017-Oct-16 23:30N 43°32' W 003°33'0 0.0
2017-Oct-16 23:01N 43°32' W 003°33'0 0.0
2017-Oct-16 22:30N 43°32' W 003°33'0 0.0
2017-Oct-16 22:01N 43°32' W 003°33'0 0.0
2017-Oct-16 21:30N 43°32' W 003°33'0 0.0
2017-Oct-16 21:01N 43°32' W 003°33'0 0.0
2017-Oct-16 20:31N 43°32' W 003°33'0 0.0
2017-Oct-16 20:00N 43°32' W 003°33'0 0.0
2017-Oct-16 19:30N 43°32' W 003°33'0 0.1
2017-Oct-16 19:01N 43°32' W 003°33'0 0.0
2017-Oct-16 18:30N 43°32' W 003°33'0 0.0
2017-Oct-16 18:00N 43°32' W 003°33'0 0.2
2017-Oct-16 17:30N 43°32' W 003°32'2 4.7
2017-Oct-16 17:00N 43°31' W 003°29'4 8.9
2017-Oct-16 16:31N 43°28' W 003°25'3 0.5
2017-Oct-16 10:16N 43°25' W 003°25'0 0.0
2017-Oct-16 07:40N 43°25' W 003°25'0 0.0
2017-Oct-16 07:29N 43°25' W 003°25'0 0.0
2017-Oct-16 06:57N 43°25' W 003°25'0 0.0
2017-Oct-16 06:30N 43°25' W 003°25'  
2017-Oct-13 13:07N 43°25' W 003°25'0 0.0
2017-Oct-13 12:58N 43°25' W 003°25'0 0.0
2017-Oct-13 08:33N 43°25' W 003°25'  
2017-Oct-11 00:00N 43°25' W 003°25'0 0.0
2017-Oct-10 23:30N 43°25' W 003°25'2 4.0
2017-Oct-10 23:01N 43°27' W 003°23'4 8.9
2017-Oct-10 22:30N 43°29' W 003°18'4 9.0
2017-Oct-10 22:00N 43°30' W 003°12'4 8.1
2017-Oct-10 21:30N 43°32' W 003°07'5 9.6
2017-Oct-10 21:00N 43°34' W 003°01'5 9.6
2017-Oct-10 20:30N 43°36' W 002°55'5 9.4
2017-Oct-10 20:00N 43°38' W 002°49'5 9.5
2017-Oct-10 19:30N 43°40' W 002°43'5 9.6
2017-Oct-10 19:00N 43°42' W 002°37'5 9.6
2017-Oct-10 18:30N 43°44' W 002°31'5 9.7
2017-Oct-10 18:00N 43°45' W 002°25'2 5.0
2017-Oct-10 17:30N 43°45' W 002°28'5 9.5
2017-Oct-10 17:01N 43°49' W 002°32'5 9.3
2017-Oct-10 16:30N 43°51' W 002°38'3 6.9
2017-Oct-10 16:00N 43°53' W 002°42'4 7.6
2017-Oct-10 15:30N 43°53' W 002°37'3 5.8
2017-Oct-10 15:00N 43°54' W 002°33'5 5.3
2017-Oct-10 14:00N 43°56' W 002°26'3 5.7
2017-Oct-10 13:30N 43°53' W 002°27'4 8.5
2017-Oct-10 13:00N 43°53' W 002°21'4 7.5
2017-Oct-10 12:30N 43°55' W 002°17'4 8.9
2017-Oct-10 12:00N 43°55' W 002°11'0 0.1
2017-Oct-10 11:30N 43°55' W 002°11'1 2.6
2017-Oct-10 11:00N 43°54' W 002°12'2 4.9
2017-Oct-10 10:30N 43°54' W 002°15'4 7.2
2017-Oct-10 10:00N 43°52' W 002°12'4 7.4
2017-Oct-10 09:31N 43°48' W 002°15'4 8.3
2017-Oct-10 09:00N 43°45' W 002°17'5 9.7
2017-Oct-10 08:30N 43°45' W 002°23'5 9.6
2017-Oct-10 08:00N 43°46' W 002°30'4 8.0
2017-Oct-10 07:30N 43°43' W 002°34'3 6.6
2017-Oct-10 07:00N 43°43' W 002°39'4 8.4
2017-Oct-10 06:30N 43°45' W 002°44'4 8.5
2017-Oct-10 06:00N 43°44' W 002°50'4 8.6
2017-Oct-10 05:30N 43°42' W 002°55'4 8.6
2017-Oct-10 05:00N 43°40' W 003°00'4 8.6
2017-Oct-10 04:30N 43°38' W 003°06'4 8.4
2017-Oct-10 04:00N 43°36' W 003°11'4 7.3
2017-Oct-10 03:30N 43°35' W 003°16'0 0.1
2017-Oct-10 03:00N 43°35' W 003°15'0 0.4
2017-Oct-10 02:31N 43°34' W 003°15'1 1.4
2017-Oct-10 02:00N 43°35' W 003°16'0 0.8
2017-Oct-10 01:30N 43°34' W 003°17'4 8.1
2017-Oct-10 01:00N 43°32' W 003°22'5 9.0
2017-Oct-10 00:30N 43°28' W 003°24'3 6.1
2017-Oct-10 00:01N 43°25' W 003°25'0 0.0
2017-Oct-09 23:30N 43°25' W 003°25'0 0.2
2017-Oct-09 23:00N 43°25' W 003°25'4 8.4
2017-Oct-09 22:30N 43°28' W 003°21'510.8
2017-Oct-09 22:00N 43°31' W 003°14'510.7
2017-Oct-09 21:30N 43°34' W 003°08'510.6
2017-Oct-09 21:00N 43°37' W 003°02'510.4
2017-Oct-09 20:30N 43°40' W 002°56'510.1
2017-Oct-09 20:00N 43°43' W 002°51'510.7
2017-Oct-09 19:30N 43°46' W 002°45'510.5
2017-Oct-09 19:00N 43°49' W 002°39'510.3
2017-Oct-09 18:30N 43°51' W 002°33'4 7.3
2017-Oct-09 18:00N 43°53' W 002°28'2 4.3
2017-Oct-09 17:30N 43°54' W 002°25'1 1.9
2017-Oct-09 17:00N 43°54' W 002°24'1 1.6
2017-Oct-09 16:31N 43°54' W 002°23'  

Dump ship's entire track history